createdAt,value
2022-11-09T00:00:50.416Z,1.95
2022-11-09T00:03:17.348Z,2.22
2022-11-09T00:05:53.885Z,1.98
2022-11-09T00:08:20.335Z,1.83
2022-11-09T00:10:46.801Z,1.80
2022-11-09T00:13:13.260Z,1.80
2022-11-09T00:15:42.660Z,1.83
2022-11-09T00:18:09.158Z,2.05
2022-11-09T00:20:35.617Z,1.83
2022-11-09T00:23:02.093Z,1.83
2022-11-09T00:25:31.364Z,2.25
2022-11-09T00:27:57.837Z,1.85
2022-11-09T00:30:26.810Z,1.58
2022-11-09T00:32:53.336Z,2.10
2022-11-09T00:35:19.803Z,1.85
2022-11-09T00:37:46.395Z,1.85
2022-11-09T00:40:13.294Z,1.90
2022-11-09T00:42:39.837Z,2.05
2022-11-09T00:45:06.861Z,1.95
2022-11-09T00:47:33.429Z,2.20
2022-11-09T00:49:59.945Z,1.80
2022-11-09T00:52:26.425Z,1.75
2022-11-09T00:54:53.525Z,1.90
2022-11-09T00:57:20.039Z,1.67
2022-11-09T00:59:46.639Z,1.67
2022-11-09T01:02:13.137Z,1.80
2022-11-09T01:04:42.735Z,2.05
2022-11-09T01:07:09.289Z,2.10
2022-11-09T01:09:37.600Z,2.22
2022-11-09T01:12:04.130Z,1.75
2022-11-09T01:14:35.416Z,1.80
2022-11-09T01:17:03.388Z,1.80
2022-11-09T01:19:29.925Z,2.00
2022-11-09T01:21:56.649Z,2.25
2022-11-09T01:24:24.765Z,1.58
2022-11-09T01:26:51.250Z,1.98
2022-11-09T01:29:20.685Z,2.03
2022-11-09T01:31:48.482Z,1.95
2022-11-09T01:34:17.660Z,1.85
2022-11-09T01:36:44.316Z,1.80
2022-11-09T01:39:10.921Z,2.20
2022-11-09T01:41:38.123Z,1.65
2022-11-09T01:44:20.497Z,1.90
2022-11-09T01:47:07.912Z,1.98
2022-11-09T01:49:54.598Z,1.88
2022-11-09T01:52:35.660Z,1.77
2022-11-09T01:55:08.998Z,1.60
2022-11-09T01:57:47.675Z,1.80
2022-11-09T02:00:16.745Z,1.73
2022-11-09T02:02:51.082Z,1.58
2022-11-09T02:05:23.744Z,1.92
2022-11-09T02:07:52.754Z,1.98
2022-11-09T02:10:33.857Z,1.88
2022-11-09T02:13:02.272Z,1.88
2022-11-09T02:15:40.166Z,1.58
2022-11-09T02:18:10.944Z,1.50
2022-11-09T02:20:53.375Z,2.05
2022-11-09T02:23:23.188Z,1.80
2022-11-09T02:25:54.743Z,1.60
2022-11-09T02:28:21.896Z,2.28
2022-11-09T02:30:53.107Z,1.98
2022-11-09T02:33:20.078Z,2.00
2022-11-09T02:35:47.946Z,1.80
2022-11-09T02:38:15.374Z,1.98
2022-11-09T02:40:46.812Z,2.00
2022-11-09T02:43:15.573Z,1.85
2022-11-09T02:45:48.382Z,2.38
2022-11-09T02:48:15.354Z,1.60
2022-11-09T02:50:42.032Z,2.22
2022-11-09T02:53:08.953Z,1.70
2022-11-09T02:55:43.056Z,2.00
2022-11-09T02:58:09.628Z,1.73
2022-11-09T03:00:36.972Z,1.60
2022-11-09T03:03:04.183Z,1.92
2022-11-09T03:05:31.030Z,1.75
2022-11-09T03:08:02.274Z,1.35
2022-11-09T03:10:31.349Z,1.63
2022-11-09T03:12:57.825Z,1.60
2022-11-09T03:15:25.301Z,1.60
2022-11-09T03:17:51.769Z,1.55
2022-11-09T03:20:19.881Z,1.70
2022-11-09T03:22:48.375Z,2.42
2022-11-09T03:25:19.374Z,2.60
2022-11-09T03:27:45.892Z,1.88
2022-11-09T03:30:13.083Z,1.73
2022-11-09T03:32:40.233Z,1.95
2022-11-09T03:35:12.083Z,1.50
2022-11-09T03:37:39.038Z,2.10
2022-11-09T03:40:06.353Z,1.77
2022-11-09T03:42:32.889Z,2.20
2022-11-09T03:45:03.841Z,2.00
2022-11-09T03:47:30.341Z,1.98
2022-11-09T03:49:57.045Z,2.03
2022-11-09T03:52:23.613Z,1.95
2022-11-09T03:54:50.482Z,1.75
2022-11-09T03:57:16.967Z,1.90
2022-11-09T03:59:43.433Z,1.80
2022-11-09T04:02:09.978Z,2.22
2022-11-09T04:04:40.452Z,2.00
2022-11-09T04:07:07.002Z,1.58
2022-11-09T04:09:33.471Z,2.47
2022-11-09T04:11:59.972Z,1.85
2022-11-09T04:14:28.273Z,1.60
2022-11-09T04:16:54.754Z,1.58
2022-11-09T04:19:21.468Z,1.98
2022-11-09T04:21:48.266Z,2.00
2022-11-09T04:24:19.126Z,1.70
2022-11-09T04:26:47.312Z,2.38
2022-11-09T04:29:13.998Z,1.58
2022-11-09T04:31:40.494Z,1.92
2022-11-09T04:34:07.077Z,1.67
2022-11-09T04:36:33.811Z,2.03
2022-11-09T04:39:00.388Z,1.60
2022-11-09T04:41:27.863Z,1.90
2022-11-09T04:43:54.464Z,1.70
2022-11-09T04:46:21.051Z,1.88
2022-11-09T04:48:47.522Z,2.60
2022-11-09T04:51:14.300Z,1.50
2022-11-09T04:53:40.819Z,1.85
2022-11-09T04:56:08.043Z,1.75
2022-11-09T04:58:34.954Z,1.83
2022-11-09T05:01:13.503Z,1.92
2022-11-09T05:03:41.088Z,2.08
2022-11-09T05:06:27.073Z,2.17
2022-11-09T05:08:54.510Z,2.08
2022-11-09T05:11:22.232Z,1.70
2022-11-09T05:13:49.077Z,2.10
2022-11-09T05:16:17.579Z,2.65
2022-11-09T05:18:44.530Z,1.70
2022-11-09T05:21:11.658Z,1.90
2022-11-09T05:23:57.272Z,2.05
2022-11-09T05:26:30.603Z,1.80
2022-11-09T05:28:59.320Z,2.15
2022-11-09T05:31:27.256Z,1.80
2022-11-09T05:33:54.302Z,2.72
2022-11-09T05:36:22.180Z,1.77
2022-11-09T05:38:49.074Z,2.05
2022-11-09T05:41:16.288Z,1.85
2022-11-09T05:43:44.683Z,2.08
2022-11-09T05:46:15.430Z,1.98
2022-11-09T05:48:42.916Z,2.75
2022-11-09T05:51:11.989Z,1.80
2022-11-09T05:53:42.386Z,1.77
2022-11-09T05:56:13.373Z,1.70
2022-11-09T05:58:41.301Z,2.20
2022-11-09T06:01:10.432Z,2.40
2022-11-09T06:03:37.641Z,1.92
2022-11-09T06:06:08.587Z,1.80
2022-11-09T06:08:35.864Z,2.05
2022-11-09T06:11:05.400Z,1.90
2022-11-09T06:13:32.638Z,2.30
2022-11-09T06:16:04.272Z,1.85
2022-11-09T06:18:33.102Z,2.05
2022-11-09T06:21:01.855Z,1.95
2022-11-09T06:23:29.392Z,2.75
2022-11-09T06:26:01.675Z,1.60
2022-11-09T06:28:28.737Z,2.10
2022-11-09T06:31:03.737Z,1.83
2022-11-09T06:33:32.000Z,2.08
2022-11-09T06:36:00.091Z,2.00
2022-11-09T06:38:26.990Z,2.30
2022-11-09T06:40:55.234Z,2.20
2022-11-09T06:43:23.078Z,2.17
2022-11-09T06:45:50.251Z,1.80
2022-11-09T06:48:16.810Z,2.22
2022-11-09T06:50:43.594Z,2.13
2022-11-09T06:53:12.742Z,2.20
2022-11-09T06:55:49.105Z,2.63
2022-11-09T06:58:18.265Z,2.92
2022-11-09T07:00:45.541Z,2.00
2022-11-09T07:03:16.824Z,2.22
2022-11-09T07:05:45.539Z,2.50
2022-11-09T07:08:12.736Z,2.13
2022-11-09T07:10:39.642Z,2.13
2022-11-09T07:13:07.218Z,2.45
2022-11-09T07:15:35.354Z,2.20
2022-11-09T07:18:04.351Z,2.22
2022-11-09T07:20:31.256Z,1.88
2022-11-09T07:22:58.150Z,2.28
2022-11-09T07:25:27.126Z,2.22
2022-11-09T07:27:53.773Z,1.98
2022-11-09T07:30:20.253Z,1.90
2022-11-09T07:33:07.899Z,1.92
2022-11-09T07:35:34.677Z,2.00
2022-11-09T07:38:02.078Z,2.30
2022-11-09T07:40:29.236Z,2.05
2022-11-09T07:43:04.717Z,2.05
2022-11-09T07:45:36.111Z,2.80
2022-11-09T07:48:05.711Z,2.67
2022-11-09T07:50:33.414Z,2.08
2022-11-09T07:53:01.897Z,1.58
2022-11-09T07:55:33.441Z,2.40
2022-11-09T07:58:02.820Z,2.55
2022-11-09T08:00:31.428Z,2.00
2022-11-09T08:02:58.081Z,2.20
2022-11-09T08:05:24.960Z,2.13
2022-11-09T08:07:59.410Z,2.03
2022-11-09T08:10:27.391Z,2.00
2022-11-09T08:12:55.591Z,2.30
2022-11-09T08:15:24.411Z,1.92
2022-11-09T08:17:51.188Z,1.63
2022-11-09T08:20:18.198Z,2.17
2022-11-09T08:22:46.231Z,2.00
2022-11-09T08:25:17.588Z,1.88
2022-11-09T08:27:44.069Z,2.42
2022-11-09T08:30:14.301Z,2.10
2022-11-09T08:32:42.342Z,1.95
2022-11-09T08:35:12.482Z,1.90
2022-11-09T08:37:39.779Z,2.05
2022-11-09T08:40:07.300Z,2.25
2022-11-09T08:42:33.960Z,2.25
2022-11-09T08:45:02.084Z,2.20
2022-11-09T08:47:29.059Z,1.85
2022-11-09T08:49:55.846Z,1.75
2022-11-09T08:52:22.403Z,1.60
2022-11-09T08:54:49.025Z,1.70
2022-11-09T08:57:18.922Z,1.60
2022-11-09T08:59:46.168Z,1.70
2022-11-09T09:02:13.436Z,2.13
2022-11-09T09:04:44.432Z,1.88
2022-11-09T09:07:11.053Z,2.05
2022-11-09T09:09:40.176Z,1.75
2022-11-09T09:12:08.292Z,2.10
2022-11-09T09:14:39.140Z,1.60
2022-11-09T09:17:05.835Z,2.30
2022-11-09T09:19:32.359Z,2.03
2022-11-09T09:21:59.391Z,1.90
2022-11-09T09:24:30.516Z,2.00
2022-11-09T09:26:57.030Z,1.95
2022-11-09T09:29:23.714Z,2.47
2022-11-09T09:31:50.262Z,1.67
2022-11-09T09:34:18.471Z,1.90
2022-11-09T09:36:48.322Z,1.77
2022-11-09T09:39:15.638Z,1.77
2022-11-09T09:42:04.858Z,1.83
2022-11-09T09:44:46.391Z,1.95
2022-11-09T09:47:22.157Z,1.85
2022-11-09T09:50:13.634Z,2.00
2022-11-09T09:53:04.747Z,2.55
2022-11-09T09:55:42.889Z,1.85
2022-11-09T09:58:16.413Z,2.38
2022-11-09T10:00:43.910Z,2.08
2022-11-09T10:03:20.229Z,1.80
2022-11-09T10:05:58.668Z,2.28
2022-11-09T10:08:47.116Z,2.35
2022-11-09T10:11:47.812Z,2.28
2022-11-09T10:14:17.806Z,2.10
2022-11-09T10:17:09.409Z,1.73
2022-11-09T10:19:50.315Z,1.73
2022-11-09T10:22:26.277Z,2.47
2022-11-09T10:28:12.821Z,1.90
2022-11-09T10:30:40.460Z,1.90
2022-11-09T10:33:09.898Z,1.90
2022-11-09T10:35:53.591Z,2.38
2022-11-09T10:38:29.292Z,2.00
2022-11-09T10:41:39.778Z,2.50
2022-11-09T10:44:26.250Z,1.60
2022-11-09T10:47:14.555Z,1.90
2022-11-09T10:50:08.052Z,1.55
2022-11-09T10:52:53.181Z,1.90
2022-11-09T10:55:49.272Z,1.95
2022-11-09T10:58:40.696Z,1.98
2022-11-09T11:01:36.751Z,1.48
2022-11-09T11:04:26.701Z,1.98
2022-11-09T11:07:21.284Z,1.52
2022-11-09T11:10:15.606Z,1.65
2022-11-09T11:13:00.398Z,1.67
2022-11-09T11:15:52.894Z,1.43
2022-11-09T11:18:37.962Z,1.80
2022-11-09T11:21:24.307Z,1.80
2022-11-09T11:24:21.354Z,1.67
2022-11-09T11:27:16.408Z,1.75
2022-11-09T11:30:15.839Z,1.50
2022-11-09T11:33:00.873Z,1.50
2022-11-09T11:35:53.489Z,1.30
2022-11-09T11:38:53.282Z,1.13
2022-11-09T11:42:05.613Z,1.45
2022-11-09T11:45:41.006Z,1.70
2022-11-09T11:48:49.633Z,2.08
2022-11-09T11:52:23.461Z,1.60
2022-11-09T11:55:26.557Z,1.33
2022-11-09T11:58:55.121Z,1.40
2022-11-09T12:02:31.689Z,1.27
2022-11-09T12:05:16.871Z,1.98
2022-11-09T12:08:40.215Z,2.85
2022-11-09T12:11:54.858Z,1.60
2022-11-09T12:15:01.880Z,1.33
2022-11-09T12:18:34.613Z,2.22
2022-11-09T12:21:41.503Z,1.58
2022-11-09T12:24:46.671Z,1.38
2022-11-09T12:27:56.475Z,1.65
2022-11-09T12:30:54.844Z,1.30
2022-11-09T12:34:01.786Z,1.83
2022-11-09T12:37:02.593Z,1.90
2022-11-09T12:39:52.654Z,1.40
2022-11-09T12:42:53.918Z,1.63
2022-11-09T12:45:44.222Z,1.27
2022-11-09T12:48:32.192Z,1.33
2022-11-09T12:51:18.347Z,2.22
2022-11-09T12:57:15.854Z,1.15
2022-11-09T13:00:01.109Z,1.85
2022-11-09T13:02:58.515Z,1.23
2022-11-09T13:05:45.736Z,1.75
2022-11-09T13:08:32.004Z,1.60
2022-11-09T13:11:21.755Z,1.23
2022-11-09T13:14:22.219Z,1.50
2022-11-09T13:17:26.070Z,1.55
2022-11-09T13:20:56.950Z,1.30
2022-11-09T13:26:48.501Z,1.33
2022-11-09T13:29:39.820Z,1.45
2022-11-09T13:32:27.669Z,1.50
2022-11-09T13:35:42.047Z,1.10
2022-11-09T13:38:30.646Z,1.17
2022-11-09T13:41:34.153Z,0.90
2022-11-09T13:44:26.270Z,1.00
2022-11-09T13:47:27.931Z,1.08
2022-11-09T13:50:22.621Z,1.30
2022-11-09T13:53:27.911Z,1.10
2022-11-09T13:56:24.766Z,1.10
2022-11-09T13:59:39.073Z,1.20
2022-11-09T14:02:26.237Z,1.10
2022-11-09T14:05:44.240Z,1.00
2022-11-09T14:08:37.530Z,2.28
2022-11-09T14:12:10.241Z,1.00
2022-11-09T14:15:32.582Z,1.15
2022-11-09T14:18:32.734Z,1.55
2022-11-09T14:21:24.621Z,1.30
2022-11-09T14:24:22.109Z,1.20
2022-11-09T14:27:10.267Z,1.70
2022-11-09T14:29:59.361Z,1.40
2022-11-09T14:32:49.721Z,1.50
2022-11-09T14:35:39.220Z,1.50
2022-11-09T14:38:31.039Z,1.25
2022-11-09T14:41:31.160Z,1.45
2022-11-09T14:44:40.211Z,1.17
2022-11-09T14:47:31.842Z,0.98
2022-11-09T14:50:26.601Z,1.17
2022-11-09T14:53:18.972Z,1.23
2022-11-09T14:56:12.234Z,0.98
2022-11-09T14:58:58.297Z,1.40
2022-11-09T15:02:02.733Z,1.15
2022-11-09T15:05:01.981Z,1.27
2022-11-09T15:07:50.706Z,1.13
2022-11-09T15:10:36.371Z,1.20
2022-11-09T15:13:37.518Z,1.20
2022-11-09T15:16:26.394Z,1.40
2022-11-09T15:19:29.349Z,0.80
2022-11-09T15:22:48.803Z,1.08
2022-11-09T15:25:56.048Z,1.27
2022-11-09T15:28:46.648Z,1.55
2022-11-09T15:31:31.474Z,1.00
2022-11-09T15:34:24.644Z,1.30
2022-11-09T15:37:29.669Z,1.85
2022-11-09T15:40:19.818Z,1.23
2022-11-09T15:43:05.321Z,1.30
2022-11-09T15:45:50.809Z,1.20
2022-11-09T15:48:35.781Z,1.10
2022-11-09T15:51:20.967Z,1.80
2022-11-09T15:54:06.227Z,1.50
2022-11-09T15:57:03.064Z,1.52
2022-11-09T16:02:33.764Z,1.80
2022-11-09T16:05:25.478Z,1.60
2022-11-09T16:08:10.721Z,1.30
2022-11-09T16:10:55.882Z,1.80
2022-11-09T16:13:40.835Z,1.63
2022-11-09T16:16:27.728Z,1.33
2022-11-09T16:19:14.221Z,1.65
2022-11-09T16:22:02.070Z,1.83
2022-11-09T16:24:48.294Z,1.40
2022-11-09T16:27:49.672Z,1.60
2022-11-09T16:30:35.580Z,1.92
2022-11-09T16:33:20.695Z,2.25
2022-11-09T16:36:13.533Z,1.60
2022-11-09T16:39:04.081Z,1.48
2022-11-09T16:41:51.498Z,1.70
2022-11-09T16:44:44.954Z,1.70
2022-11-09T16:47:30.398Z,2.03
2022-11-09T16:50:15.918Z,2.10
2022-11-09T16:53:01.048Z,2.08
2022-11-09T16:55:51.982Z,1.98
2022-11-09T16:58:37.706Z,1.83
2022-11-09T17:04:09.258Z,1.85
2022-11-09T17:06:54.818Z,1.80
2022-11-09T17:09:40.021Z,1.60
2022-11-09T17:12:25.010Z,2.03
2022-11-09T17:15:10.682Z,2.42
2022-11-09T17:17:56.090Z,1.60
2022-11-09T17:20:46.478Z,1.95
2022-11-09T17:23:31.504Z,1.65
2022-11-09T17:26:17.867Z,1.90
2022-11-09T17:29:03.852Z,1.88
2022-11-09T17:31:48.848Z,1.77
2022-11-09T17:34:40.015Z,2.13
2022-11-09T17:37:25.284Z,1.90
2022-11-09T17:40:10.643Z,1.75
2022-11-09T17:42:56.978Z,2.60
2022-11-09T17:45:46.584Z,1.88
2022-11-09T17:48:33.427Z,2.03
2022-11-09T17:51:19.984Z,2.60
2022-11-09T17:54:05.256Z,2.00
2022-11-09T17:56:52.075Z,1.73
2022-11-09T17:59:39.685Z,2.20
2022-11-09T18:02:25.357Z,2.10
2022-11-09T18:05:11.278Z,1.80
2022-11-09T18:07:56.210Z,1.67
2022-11-09T18:10:43.882Z,1.73
2022-11-09T18:13:29.071Z,2.53
2022-11-09T18:16:17.856Z,1.95
2022-11-09T18:19:04.806Z,1.67
2022-11-09T18:21:49.788Z,1.80
2022-11-09T18:24:39.336Z,1.88
2022-11-09T18:27:29.072Z,1.92
2022-11-09T18:30:16.593Z,2.08
2022-11-09T18:33:01.752Z,1.83
2022-11-09T18:36:01.766Z,2.13
2022-11-09T18:38:47.239Z,2.75
2022-11-09T18:41:33.002Z,2.28
2022-11-09T18:44:18.305Z,2.00
2022-11-09T18:47:05.675Z,1.60
2022-11-09T18:49:51.192Z,1.88
2022-11-09T18:52:36.850Z,2.13
2022-11-09T18:55:22.073Z,1.95
2022-11-09T18:58:07.173Z,2.40
2022-11-09T19:00:59.944Z,2.45
2022-11-09T19:03:45.357Z,3.70
2022-11-09T19:06:30.724Z,2.08
2022-11-09T19:09:34.472Z,1.95
2022-11-09T19:12:19.573Z,2.45
2022-11-09T19:15:07.754Z,1.97
2022-11-09T19:17:53.860Z,2.13
2022-11-09T19:20:39.200Z,2.17
2022-11-09T19:23:28.385Z,1.98
2022-11-09T19:26:17.745Z,2.28
2022-11-09T19:29:02.916Z,2.00
2022-11-09T19:31:48.570Z,2.40
2022-11-09T19:37:19.381Z,2.17
2022-11-09T19:40:05.374Z,2.65
2022-11-09T19:42:50.233Z,2.80
2022-11-09T19:45:40.178Z,2.20
2022-11-09T19:48:25.560Z,2.53
2022-11-09T19:51:10.838Z,2.88
2022-11-09T19:53:57.362Z,2.92
2022-11-09T19:56:42.763Z,2.50
2022-11-09T19:59:27.893Z,2.60
2022-11-09T20:02:12.993Z,2.45
2022-11-09T20:05:03.100Z,2.93
2022-11-09T20:07:48.115Z,2.45
2022-11-09T20:10:37.181Z,2.70
2022-11-09T20:13:22.873Z,2.20
2022-11-09T20:16:10.368Z,2.75
2022-11-09T20:18:55.612Z,2.63
2022-11-09T20:21:41.514Z,3.00
2022-11-09T20:24:27.685Z,2.50
2022-11-09T20:27:12.780Z,2.55
2022-11-09T20:29:57.648Z,2.67
2022-11-09T20:32:42.720Z,2.70
2022-11-09T20:35:27.776Z,2.47
2022-11-09T20:38:12.912Z,2.75
2022-11-09T20:41:00.895Z,2.25
2022-11-09T20:43:46.756Z,2.75
2022-11-09T20:46:36.183Z,2.25
2022-11-09T20:49:22.305Z,2.15
2022-11-09T20:52:07.255Z,2.50
2022-11-09T20:54:55.334Z,2.67
2022-11-09T20:57:40.535Z,2.70
2022-11-09T21:00:25.655Z,2.17
2022-11-09T21:03:10.863Z,3.53
2022-11-09T21:05:59.447Z,2.33
2022-11-09T21:08:52.586Z,2.10
2022-11-09T21:12:00.854Z,2.50
2022-11-09T21:14:47.590Z,2.55
2022-11-09T21:17:32.790Z,3.08
2022-11-09T21:20:18.175Z,2.67
2022-11-09T21:23:23.495Z,2.83
2022-11-09T21:26:27.649Z,2.40
2022-11-09T21:29:35.206Z,2.70
2022-11-09T21:32:22.073Z,2.38
2022-11-09T21:35:08.630Z,2.53
2022-11-09T21:37:56.562Z,2.53
2022-11-09T21:40:41.634Z,3.15
2022-11-09T21:43:26.996Z,3.40
2022-11-09T21:46:12.212Z,2.10
2022-11-09T21:48:57.758Z,2.90
2022-11-09T21:51:42.934Z,2.97
2022-11-09T21:54:31.587Z,2.50
2022-11-09T21:57:16.949Z,2.83
2022-11-09T22:00:01.705Z,3.13
2022-11-09T22:02:46.618Z,3.00
2022-11-09T22:05:33.610Z,2.20
2022-11-09T22:08:18.721Z,2.58
2022-11-09T22:11:45.218Z,2.85
2022-11-09T22:14:52.185Z,2.87
2022-11-09T22:17:37.226Z,3.67
2022-11-09T22:20:42.172Z,2.63
2022-11-09T22:23:27.299Z,2.78
2022-11-09T22:26:12.752Z,2.70
2022-11-09T22:28:58.745Z,2.80
2022-11-09T22:31:43.937Z,2.53
2022-11-09T22:34:30.714Z,2.50
2022-11-09T22:37:16.106Z,3.17
2022-11-09T22:40:01.145Z,2.88
2022-11-09T22:42:45.994Z,2.55
2022-11-09T22:45:33.631Z,2.53
2022-11-09T22:48:18.936Z,2.60
2022-11-09T22:51:05.108Z,3.05
2022-11-09T22:53:51.153Z,2.50
2022-11-09T22:56:36.515Z,2.72
2022-11-09T22:59:21.465Z,2.80
2022-11-09T23:02:06.523Z,3.13
2022-11-09T23:04:51.406Z,1.95
2022-11-09T23:07:36.678Z,2.67
2022-11-09T23:10:21.953Z,2.65
2022-11-09T23:13:07.446Z,2.63
2022-11-09T23:15:57.181Z,2.75
2022-11-09T23:18:54.889Z,2.58
2022-11-09T23:21:40.147Z,3.05
2022-11-09T23:24:44.133Z,2.60
2022-11-09T23:27:29.441Z,3.38
2022-11-09T23:30:14.764Z,2.45
2022-11-09T23:33:01.385Z,2.10
2022-11-09T23:35:48.542Z,2.67
2022-11-09T23:38:36.292Z,2.65
2022-11-09T23:41:21.735Z,3.40
2022-11-09T23:44:06.730Z,3.10
2022-11-09T23:46:52.467Z,2.40
2022-11-09T23:49:37.232Z,3.70
2022-11-09T23:52:22.232Z,3.10
2022-11-09T23:55:07.579Z,2.53
2022-11-09T23:57:53.011Z,2.88
